China Lake Naws (Armitage Field) Airport
KNID : now visible

Airfield :











YOU CAN JOIN US ON...

 
LOGIN :

Register | Disclaimer

   EN    FR    IT 

 









Legend :    VFR   Marginal VFR   IFR   Intensive IFR   Very Intensive IFR
Visi :
Ceiling :
>= 8 km
>= 3000ft
5 to 8 km
1000 to 3000 ft
1500m to 5 km
500 to 1000 ft
800 to 1500m
200 to 500 ft
< 800m
< 200 ft
Symbols :   Thunderstorms  Fog  Heavy snow  Heavy precipitations  Wind > 20 kt






- Airport Elevation : 2283 ft


KNID - China Lake Naws (Armitage Field)

CURRENT METAR :
  • 220356Z 21006KT 10SM BKN250 06/01 A3009 RMK AO2 SLP196 T00610011 $

EXPIRED METARs :
  • 220256Z 28007KT 10SM FEW070 BKN250 08/01 A3008 RMK AO2 SLP191 T00830011 53015 $
  • 220156Z 00000KT 10SM FEW070 BKN250 10/01 A3006 RMK AO2 SLP183 T01000011 $

TAF TAF KNID
Valid from the 21 at 23:00 until the 22 at 23:00 UTC


2123/2223 VRB05KT 9999 FEW070 SCT250 521809 512709 QNH2993INS
BECMG 2202/2204 22009KT 9999 BKN250 521809 512709 QNH2999INS
BECMG 2210/2212 VRB05KT 9999 FEW180 BKN250 500000 QNH3008INS T01/2214Z T16/2222Z LAST NO AMDS AFT 2206 NEXT 2215



MET'MAP, your aeronautical weather chart ! - Copyright ORBIFLY December 2007 - Disclaimer

ORBIFLY MET'MAP TEAM :

Programming & Development : Alexandra Zaïnal
Concept & original design : Baudouin d'Aumeries
Assistance for programming : Marc-Olivier Méhu
Technical & hardware support : Manuel Goepfert

Contact : metmap@orbifly.com




SOURCES & CREDITS :

   NOAA       Earth
Advisory